sensor_id;sensor_type;location;lat;lon;timestamp;P1;durP1;ratioP1;P2;durP2;ratioP2
2940;SDS011;1480;51.456;6.670;2023-02-18T00:00:56;18.17;;;15.83;;
2940;SDS011;1480;51.456;6.670;2023-02-18T00:03:23;20.30;;;16.30;;
2940;SDS011;1480;51.456;6.670;2023-02-18T00:05:50;22.93;;;15.87;;
2940;SDS011;1480;51.456;6.670;2023-02-18T00:08:17;19.00;;;15.40;;
2940;SDS011;1480;51.456;6.670;2023-02-18T00:10:46;18.20;;;15.47;;
2940;SDS011;1480;51.456;6.670;2023-02-18T00:13:13;19.37;;;15.87;;
2940;SDS011;1480;51.456;6.670;2023-02-18T00:15:40;21.87;;;18.37;;
2940;SDS011;1480;51.456;6.670;2023-02-18T00:18:07;19.40;;;15.53;;
2940;SDS011;1480;51.456;6.670;2023-02-18T00:20:34;19.67;;;15.00;;
2940;SDS011;1480;51.456;6.670;2023-02-18T00:23:03;17.60;;;15.13;;
2940;SDS011;1480;51.456;6.670;2023-02-18T00:25:30;19.53;;;16.07;;
2940;SDS011;1480;51.456;6.670;2023-02-18T00:27:58;23.83;;;16.73;;
2940;SDS011;1480;51.456;6.670;2023-02-18T00:30:25;20.53;;;16.37;;
2940;SDS011;1480;51.456;6.670;2023-02-18T00:32:54;21.53;;;17.57;;
2940;SDS011;1480;51.456;6.670;2023-02-18T00:35:21;19.67;;;16.00;;
2940;SDS011;1480;51.456;6.670;2023-02-18T00:37:49;19.47;;;17.23;;
2940;SDS011;1480;51.456;6.670;2023-02-18T00:40:18;23.80;;;16.57;;
2940;SDS011;1480;51.456;6.670;2023-02-18T00:42:45;20.20;;;15.73;;
2940;SDS011;1480;51.456;6.670;2023-02-18T00:45:14;18.60;;;16.30;;
2940;SDS011;1480;51.456;6.670;2023-02-18T00:47:41;20.80;;;16.80;;
2940;SDS011;1480;51.456;6.670;2023-02-18T00:50:08;18.07;;;15.60;;
2940;SDS011;1480;51.456;6.670;2023-02-18T00:52:36;22.27;;;15.97;;
2940;SDS011;1480;51.456;6.670;2023-02-18T00:55:03;19.27;;;16.23;;
2940;SDS011;1480;51.456;6.670;2023-02-18T00:57:31;21.13;;;17.00;;
2940;SDS011;1480;51.456;6.670;2023-02-18T00:59:58;24.57;;;17.37;;
2940;SDS011;1480;51.456;6.670;2023-02-18T01:02:26;20.90;;;16.93;;
2940;SDS011;1480;51.456;6.670;2023-02-18T01:04:53;22.53;;;17.80;;
2940;SDS011;1480;51.456;6.670;2023-02-18T01:07:20;23.70;;;18.30;;
2940;SDS011;1480;51.456;6.670;2023-02-18T01:09:47;20.47;;;17.37;;
2940;SDS011;1480;51.456;6.670;2023-02-18T01:12:14;22.40;;;16.73;;
2940;SDS011;1480;51.456;6.670;2023-02-18T01:14:41;22.87;;;16.07;;
2940;SDS011;1480;51.456;6.670;2023-02-18T01:17:08;20.93;;;16.33;;
2940;SDS011;1480;51.456;6.670;2023-02-18T01:19:39;18.17;;;15.13;;
2940;SDS011;1480;51.456;6.670;2023-02-18T01:22:06;20.80;;;17.17;;
2940;SDS011;1480;51.456;6.670;2023-02-18T01:24:33;22.23;;;17.93;;
2940;SDS011;1480;51.456;6.670;2023-02-18T01:27:02;21.03;;;17.17;;
2940;SDS011;1480;51.456;6.670;2023-02-18T01:29:29;22.40;;;16.40;;
2940;SDS011;1480;51.456;6.670;2023-02-18T01:31:56;24.43;;;16.07;;
2940;SDS011;1480;51.456;6.670;2023-02-18T01:34:23;20.23;;;14.80;;
2940;SDS011;1480;51.456;6.670;2023-02-18T01:36:51;21.73;;;16.77;;
2940;SDS011;1480;51.456;6.670;2023-02-18T01:39:18;21.20;;;16.43;;
2940;SDS011;1480;51.456;6.670;2023-02-18T01:41:45;22.10;;;15.83;;
2940;SDS011;1480;51.456;6.670;2023-02-18T01:44:13;19.23;;;15.80;;
2940;SDS011;1480;51.456;6.670;2023-02-18T01:46:43;17.67;;;15.37;;
2940;SDS011;1480;51.456;6.670;2023-02-18T01:49:11;20.57;;;15.27;;
2940;SDS011;1480;51.456;6.670;2023-02-18T01:51:42;16.70;;;14.13;;
2940;SDS011;1480;51.456;6.670;2023-02-18T01:54:13;18.77;;;15.23;;
2940;SDS011;1480;51.456;6.670;2023-02-18T01:56:45;16.80;;;13.23;;
2940;SDS011;1480;51.456;6.670;2023-02-18T01:59:18;18.30;;;12.63;;
2940;SDS011;1480;51.456;6.670;2023-02-18T02:01:49;17.53;;;13.43;;
2940;SDS011;1480;51.456;6.670;2023-02-18T02:04:16;15.40;;;12.83;;
2940;SDS011;1480;51.456;6.670;2023-02-18T02:06:43;15.60;;;13.60;;
2940;SDS011;1480;51.456;6.670;2023-02-18T02:09:11;17.50;;;13.87;;
2940;SDS011;1480;51.456;6.670;2023-02-18T02:14:46;16.13;;;12.23;;
2940;SDS011;1480;51.456;6.670;2023-02-18T02:17:23;13.90;;;11.30;;
2940;SDS011;1480;51.456;6.670;2023-02-18T02:20:06;16.20;;;13.03;;
2940;SDS011;1480;51.456;6.670;2023-02-18T02:29:31;14.37;;;11.57;;
2940;SDS011;1480;51.456;6.670;2023-02-18T02:32:26;14.47;;;12.30;;
2940;SDS011;1480;51.456;6.670;2023-02-18T02:35:06;13.97;;;10.70;;
2940;SDS011;1480;51.456;6.670;2023-02-18T02:37:37;15.03;;;11.57;;
2940;SDS011;1480;51.456;6.670;2023-02-18T02:40:14;12.90;;;11.47;;
2940;SDS011;1480;51.456;6.670;2023-02-18T02:42:52;18.83;;;13.40;;
2940;SDS011;1480;51.456;6.670;2023-02-18T02:45:34;13.67;;;10.60;;
2940;SDS011;1480;51.456;6.670;2023-02-18T02:48:09;13.10;;;11.10;;
2940;SDS011;1480;51.456;6.670;2023-02-18T02:50:48;17.70;;;12.13;;
2940;SDS011;1480;51.456;6.670;2023-02-18T02:53:20;15.10;;;10.50;;
2940;SDS011;1480;51.456;6.670;2023-02-18T02:55:51;15.20;;;11.20;;
2940;SDS011;1480;51.456;6.670;2023-02-18T02:58:19;15.10;;;11.80;;
2940;SDS011;1480;51.456;6.670;2023-02-18T03:00:51;13.97;;;12.03;;
2940;SDS011;1480;51.456;6.670;2023-02-18T03:03:33;12.83;;;11.27;;
2940;SDS011;1480;51.456;6.670;2023-02-18T03:06:19;14.10;;;11.80;;
2940;SDS011;1480;51.456;6.670;2023-02-18T03:09:00;13.30;;;11.23;;
2940;SDS011;1480;51.456;6.670;2023-02-18T03:11:34;13.37;;;10.80;;
2940;SDS011;1480;51.456;6.670;2023-02-18T03:14:09;13.80;;;11.40;;
2940;SDS011;1480;51.456;6.670;2023-02-18T03:16:43;16.00;;;11.73;;
2940;SDS011;1480;51.456;6.670;2023-02-18T03:19:16;16.57;;;11.80;;
2940;SDS011;1480;51.456;6.670;2023-02-18T03:21:50;17.80;;;13.50;;
2940;SDS011;1480;51.456;6.670;2023-02-18T03:24:22;16.10;;;10.87;;
2940;SDS011;1480;51.456;6.670;2023-02-18T03:26:53;16.60;;;12.73;;
2940;SDS011;1480;51.456;6.670;2023-02-18T03:29:24;17.93;;;11.67;;
2940;SDS011;1480;51.456;6.670;2023-02-18T03:31:53;17.40;;;12.47;;
2940;SDS011;1480;51.456;6.670;2023-02-18T03:34:24;15.30;;;12.03;;
2940;SDS011;1480;51.456;6.670;2023-02-18T03:36:55;15.70;;;12.57;;
2940;SDS011;1480;51.456;6.670;2023-02-18T03:39:25;15.87;;;12.30;;
2940;SDS011;1480;51.456;6.670;2023-02-18T03:41:54;17.10;;;13.00;;
2940;SDS011;1480;51.456;6.670;2023-02-18T03:44:22;18.27;;;12.63;;
2940;SDS011;1480;51.456;6.670;2023-02-18T03:46:50;14.20;;;10.63;;
2940;SDS011;1480;51.456;6.670;2023-02-18T03:49:18;14.73;;;11.03;;
2940;SDS011;1480;51.456;6.670;2023-02-18T03:51:46;16.30;;;11.40;;
2940;SDS011;1480;51.456;6.670;2023-02-18T03:54:14;16.10;;;11.90;;
2940;SDS011;1480;51.456;6.670;2023-02-18T03:56:42;15.70;;;12.20;;
2940;SDS011;1480;51.456;6.670;2023-02-18T03:59:09;16.20;;;12.20;;
2940;SDS011;1480;51.456;6.670;2023-02-18T04:01:37;15.03;;;11.83;;
2940;SDS011;1480;51.456;6.670;2023-02-18T04:04:05;15.23;;;11.50;;
2940;SDS011;1480;51.456;6.670;2023-02-18T04:06:32;16.80;;;10.57;;
2940;SDS011;1480;51.456;6.670;2023-02-18T04:09:00;13.90;;;9.23;;
2940;SDS011;1480;51.456;6.670;2023-02-18T04:11:34;11.80;;;9.10;;
2940;SDS011;1480;51.456;6.670;2023-02-18T04:14:01;10.77;;;9.00;;
2940;SDS011;1480;51.456;6.670;2023-02-18T04:16:28;12.73;;;9.53;;
2940;SDS011;1480;51.456;6.670;2023-02-18T04:18:55;11.37;;;8.00;;
2940;SDS011;1480;51.456;6.670;2023-02-18T04:21:22;10.33;;;7.33;;
2940;SDS011;1480;51.456;6.670;2023-02-18T04:23:49;9.50;;;8.00;;
2940;SDS011;1480;51.456;6.670;2023-02-18T04:26:16;9.47;;;7.67;;
2940;SDS011;1480;51.456;6.670;2023-02-18T04:28:44;10.20;;;7.90;;
2940;SDS011;1480;51.456;6.670;2023-02-18T04:31:11;9.80;;;6.63;;
2940;SDS011;1480;51.456;6.670;2023-02-18T04:33:38;7.37;;;5.63;;
2940;SDS011;1480;51.456;6.670;2023-02-18T04:36:05;8.00;;;5.53;;
2940;SDS011;1480;51.456;6.670;2023-02-18T04:38:32;7.70;;;6.10;;
2940;SDS011;1480;51.456;6.670;2023-02-18T04:40:59;9.43;;;6.30;;
2940;SDS011;1480;51.456;6.670;2023-02-18T04:43:26;8.30;;;5.80;;
2940;SDS011;1480;51.456;6.670;2023-02-18T04:45:54;7.60;;;5.37;;
2940;SDS011;1480;51.456;6.670;2023-02-18T04:48:21;8.30;;;5.27;;
2940;SDS011;1480;51.456;6.670;2023-02-18T04:50:48;8.03;;;5.73;;
2940;SDS011;1480;51.456;6.670;2023-02-18T04:53:15;8.50;;;4.53;;
2940;SDS011;1480;51.456;6.670;2023-02-18T04:55:41;5.93;;;4.53;;
2940;SDS011;1480;51.456;6.670;2023-02-18T04:58:08;5.90;;;4.80;;
2940;SDS011;1480;51.456;6.670;2023-02-18T05:00:35;7.13;;;5.03;;
2940;SDS011;1480;51.456;6.670;2023-02-18T05:03:03;5.13;;;3.77;;
2940;SDS011;1480;51.456;6.670;2023-02-18T05:05:30;6.60;;;4.67;;
2940;SDS011;1480;51.456;6.670;2023-02-18T05:07:57;5.70;;;4.03;;
2940;SDS011;1480;51.456;6.670;2023-02-18T05:10:24;5.00;;;3.10;;
2940;SDS011;1480;51.456;6.670;2023-02-18T05:12:51;5.27;;;3.20;;
2940;SDS011;1480;51.456;6.670;2023-02-18T05:15:18;4.73;;;3.50;;
2940;SDS011;1480;51.456;6.670;2023-02-18T05:17:45;6.30;;;3.50;;
2940;SDS011;1480;51.456;6.670;2023-02-18T05:20:13;5.87;;;3.63;;
2940;SDS011;1480;51.456;6.670;2023-02-18T05:22:40;4.30;;;3.10;;
2940;SDS011;1480;51.456;6.670;2023-02-18T05:25:07;4.53;;;3.63;;
2940;SDS011;1480;51.456;6.670;2023-02-18T05:27:34;4.90;;;3.43;;
2940;SDS011;1480;51.456;6.670;2023-02-18T05:30:01;7.70;;;3.50;;
2940;SDS011;1480;51.456;6.670;2023-02-18T05:32:28;4.07;;;2.97;;
2940;SDS011;1480;51.456;6.670;2023-02-18T05:34:55;4.27;;;3.40;;
2940;SDS011;1480;51.456;6.670;2023-02-18T05:37:23;7.90;;;6.17;;
2940;SDS011;1480;51.456;6.670;2023-02-18T05:39:50;4.50;;;3.73;;
2940;SDS011;1480;51.456;6.670;2023-02-18T05:42:19;3.50;;;3.10;;
2940;SDS011;1480;51.456;6.670;2023-02-18T05:44:47;4.50;;;2.97;;
2940;SDS011;1480;51.456;6.670;2023-02-18T05:47:14;4.73;;;3.37;;
2940;SDS011;1480;51.456;6.670;2023-02-18T05:49:41;3.63;;;2.80;;
2940;SDS011;1480;51.456;6.670;2023-02-18T05:52:09;5.20;;;3.90;;
2940;SDS011;1480;51.456;6.670;2023-02-18T05:54:38;5.13;;;3.73;;
2940;SDS011;1480;51.456;6.670;2023-02-18T05:57:05;6.60;;;3.60;;
2940;SDS011;1480;51.456;6.670;2023-02-18T05:59:32;4.30;;;3.30;;
2940;SDS011;1480;51.456;6.670;2023-02-18T06:01:59;4.17;;;3.23;;
2940;SDS011;1480;51.456;6.670;2023-02-18T06:04:25;4.77;;;3.50;;
2940;SDS011;1480;51.456;6.670;2023-02-18T06:06:52;4.87;;;3.13;;
2940;SDS011;1480;51.456;6.670;2023-02-18T06:09:19;3.90;;;2.87;;
2940;SDS011;1480;51.456;6.670;2023-02-18T06:11:48;4.37;;;3.70;;
2940;SDS011;1480;51.456;6.670;2023-02-18T06:14:15;3.77;;;3.10;;
2940;SDS011;1480;51.456;6.670;2023-02-18T06:16:42;4.40;;;3.30;;
2940;SDS011;1480;51.456;6.670;2023-02-18T06:19:09;3.93;;;2.87;;
2940;SDS011;1480;51.456;6.670;2023-02-18T06:21:36;3.83;;;2.80;;
2940;SDS011;1480;51.456;6.670;2023-02-18T06:24:03;4.67;;;3.63;;
2940;SDS011;1480;51.456;6.670;2023-02-18T06:26:30;4.17;;;3.20;;
2940;SDS011;1480;51.456;6.670;2023-02-18T06:28:58;5.10;;;3.13;;
2940;SDS011;1480;51.456;6.670;2023-02-18T06:31:25;4.27;;;2.93;;
2940;SDS011;1480;51.456;6.670;2023-02-18T06:33:53;3.80;;;3.13;;
2940;SDS011;1480;51.456;6.670;2023-02-18T06:36:20;4.70;;;3.47;;
2940;SDS011;1480;51.456;6.670;2023-02-18T06:38:47;5.13;;;3.60;;
2940;SDS011;1480;51.456;6.670;2023-02-18T06:41:14;7.30;;;4.13;;
2940;SDS011;1480;51.456;6.670;2023-02-18T06:43:41;4.33;;;3.20;;
2940;SDS011;1480;51.456;6.670;2023-02-18T06:46:09;7.17;;;4.50;;
2940;SDS011;1480;51.456;6.670;2023-02-18T06:48:36;6.97;;;4.20;;
2940;SDS011;1480;51.456;6.670;2023-02-18T06:51:03;6.90;;;4.43;;
2940;SDS011;1480;51.456;6.670;2023-02-18T06:53:30;7.03;;;5.07;;
2940;SDS011;1480;51.456;6.670;2023-02-18T06:55:57;6.10;;;3.77;;
2940;SDS011;1480;51.456;6.670;2023-02-18T06:58:24;7.20;;;4.60;;
2940;SDS011;1480;51.456;6.670;2023-02-18T07:00:51;9.03;;;4.60;;
2940;SDS011;1480;51.456;6.670;2023-02-18T07:03:19;11.40;;;4.40;;
2940;SDS011;1480;51.456;6.670;2023-02-18T07:05:46;6.43;;;3.90;;
2940;SDS011;1480;51.456;6.670;2023-02-18T07:08:13;7.50;;;6.53;;
2940;SDS011;1480;51.456;6.670;2023-02-18T07:10:40;6.10;;;3.93;;
2940;SDS011;1480;51.456;6.670;2023-02-18T07:13:07;6.77;;;4.40;;
2940;SDS011;1480;51.456;6.670;2023-02-18T07:15:34;6.47;;;3.67;;
2940;SDS011;1480;51.456;6.670;2023-02-18T07:18:01;8.27;;;5.00;;
2940;SDS011;1480;51.456;6.670;2023-02-18T07:20:29;6.20;;;4.30;;
2940;SDS011;1480;51.456;6.670;2023-02-18T07:22:56;5.30;;;3.47;;
2940;SDS011;1480;51.456;6.670;2023-02-18T07:25:23;5.47;;;4.13;;
2940;SDS011;1480;51.456;6.670;2023-02-18T07:27:50;5.37;;;3.93;;
2940;SDS011;1480;51.456;6.670;2023-02-18T07:30:17;6.60;;;4.20;;
2940;SDS011;1480;51.456;6.670;2023-02-18T07:32:45;5.47;;;4.13;;
2940;SDS011;1480;51.456;6.670;2023-02-18T07:35:13;6.20;;;4.13;;
2940;SDS011;1480;51.456;6.670;2023-02-18T07:37:44;5.50;;;3.80;;
2940;SDS011;1480;51.456;6.670;2023-02-18T07:40:12;4.60;;;3.67;;
2940;SDS011;1480;51.456;6.670;2023-02-18T07:42:40;4.60;;;3.50;;
2940;SDS011;1480;51.456;6.670;2023-02-18T07:45:08;3.43;;;2.60;;
2940;SDS011;1480;51.456;6.670;2023-02-18T07:47:35;5.30;;;2.90;;
2940;SDS011;1480;51.456;6.670;2023-02-18T07:50:02;3.60;;;3.13;;
2940;SDS011;1480;51.456;6.670;2023-02-18T07:52:30;4.10;;;3.10;;
2940;SDS011;1480;51.456;6.670;2023-02-18T07:54:58;3.00;;;2.50;;
2940;SDS011;1480;51.456;6.670;2023-02-18T07:57:25;3.70;;;2.10;;
2940;SDS011;1480;51.456;6.670;2023-02-18T07:59:52;3.20;;;2.10;;
2940;SDS011;1480;51.456;6.670;2023-02-18T08:02:19;2.87;;;2.00;;
2940;SDS011;1480;51.456;6.670;2023-02-18T08:04:48;5.13;;;1.80;;
2940;SDS011;1480;51.456;6.670;2023-02-18T08:07:16;4.03;;;2.60;;
2940;SDS011;1480;51.456;6.670;2023-02-18T08:09:44;2.70;;;1.90;;
2940;SDS011;1480;51.456;6.670;2023-02-18T08:12:12;3.00;;;2.60;;
2940;SDS011;1480;51.456;6.670;2023-02-18T08:14:39;7.83;;;3.20;;
2940;SDS011;1480;51.456;6.670;2023-02-18T08:17:06;4.60;;;3.20;;
2940;SDS011;1480;51.456;6.670;2023-02-18T08:19:33;4.60;;;3.60;;
2940;SDS011;1480;51.456;6.670;2023-02-18T08:22:00;3.00;;;2.40;;
2940;SDS011;1480;51.456;6.670;2023-02-18T08:24:28;4.50;;;2.70;;
2940;SDS011;1480;51.456;6.670;2023-02-18T08:26:55;5.90;;;3.53;;
2940;SDS011;1480;51.456;6.670;2023-02-18T08:29:23;5.20;;;3.77;;
2940;SDS011;1480;51.456;6.670;2023-02-18T08:31:50;5.93;;;4.57;;
2940;SDS011;1480;51.456;6.670;2023-02-18T08:34:18;7.77;;;3.90;;
2940;SDS011;1480;51.456;6.670;2023-02-18T08:36:45;7.67;;;3.90;;
2940;SDS011;1480;51.456;6.670;2023-02-18T08:39:12;4.53;;;4.10;;
2940;SDS011;1480;51.456;6.670;2023-02-18T08:41:39;7.50;;;3.57;;
2940;SDS011;1480;51.456;6.670;2023-02-18T08:44:05;11.70;;;3.90;;
2940;SDS011;1480;51.456;6.670;2023-02-18T08:46:34;10.00;;;3.73;;
2940;SDS011;1480;51.456;6.670;2023-02-18T08:49:01;4.60;;;3.63;;
2940;SDS011;1480;51.456;6.670;2023-02-18T08:51:28;8.37;;;4.07;;
2940;SDS011;1480;51.456;6.670;2023-02-18T08:53:55;7.37;;;5.40;;
2940;SDS011;1480;51.456;6.670;2023-02-18T08:56:22;11.37;;;5.10;;
2940;SDS011;1480;51.456;6.670;2023-02-18T08:58:49;8.23;;;4.23;;
2940;SDS011;1480;51.456;6.670;2023-02-18T09:01:16;15.37;;;4.87;;
2940;SDS011;1480;51.456;6.670;2023-02-18T09:03:46;9.57;;;3.50;;
2940;SDS011;1480;51.456;6.670;2023-02-18T09:06:13;8.70;;;4.90;;
2940;SDS011;1480;51.456;6.670;2023-02-18T09:08:40;10.97;;;4.30;;
2940;SDS011;1480;51.456;6.670;2023-02-18T09:11:07;10.60;;;4.23;;
2940;SDS011;1480;51.456;6.670;2023-02-18T09:13:35;10.17;;;3.33;;
2940;SDS011;1480;51.456;6.670;2023-02-18T09:16:03;12.70;;;5.70;;
2940;SDS011;1480;51.456;6.670;2023-02-18T09:18:32;8.87;;;3.90;;
2940;SDS011;1480;51.456;6.670;2023-02-18T09:21:02;7.60;;;3.67;;
2940;SDS011;1480;51.456;6.670;2023-02-18T09:23:31;8.63;;;3.43;;
2940;SDS011;1480;51.456;6.670;2023-02-18T09:25:59;14.80;;;4.63;;
2940;SDS011;1480;51.456;6.670;2023-02-18T09:28:30;13.43;;;4.50;;
2940;SDS011;1480;51.456;6.670;2023-02-18T09:30:57;9.93;;;3.87;;
2940;SDS011;1480;51.456;6.670;2023-02-18T09:33:28;15.40;;;5.00;;
2940;SDS011;1480;51.456;6.670;2023-02-18T09:35:55;18.97;;;4.60;;
2940;SDS011;1480;51.456;6.670;2023-02-18T09:38:23;7.03;;;4.37;;
2940;SDS011;1480;51.456;6.670;2023-02-18T09:40:50;14.23;;;4.50;;
2940;SDS011;1480;51.456;6.670;2023-02-18T09:43:22;9.87;;;4.00;;
2940;SDS011;1480;51.456;6.670;2023-02-18T09:45:53;8.50;;;4.73;;
2940;SDS011;1480;51.456;6.670;2023-02-18T09:48:21;13.83;;;5.00;;
2940;SDS011;1480;51.456;6.670;2023-02-18T09:50:53;14.00;;;4.27;;
2940;SDS011;1480;51.456;6.670;2023-02-18T09:53:20;11.40;;;5.03;;
2940;SDS011;1480;51.456;6.670;2023-02-18T09:55:49;9.90;;;2.90;;
2940;SDS011;1480;51.456;6.670;2023-02-18T09:58:18;9.37;;;4.30;;
2940;SDS011;1480;51.456;6.670;2023-02-18T10:00:48;11.23;;;4.30;;
2940;SDS011;1480;51.456;6.670;2023-02-18T10:03:18;12.00;;;3.43;;
2940;SDS011;1480;51.456;6.670;2023-02-18T10:05:50;14.03;;;4.20;;
2940;SDS011;1480;51.456;6.670;2023-02-18T10:08:22;11.73;;;3.73;;
2940;SDS011;1480;51.456;6.670;2023-02-18T10:10:53;18.17;;;3.80;;
2940;SDS011;1480;51.456;6.670;2023-02-18T10:13:21;6.73;;;3.47;;
2940;SDS011;1480;51.456;6.670;2023-02-18T10:15:49;15.43;;;3.97;;
2940;SDS011;1480;51.456;6.670;2023-02-18T10:18:22;10.50;;;3.90;;
2940;SDS011;1480;51.456;6.670;2023-02-18T10:20:53;10.03;;;4.40;;
2940;SDS011;1480;51.456;6.670;2023-02-18T10:23:25;11.87;;;4.07;;
2940;SDS011;1480;51.456;6.670;2023-02-18T10:25:56;13.07;;;4.00;;
2940;SDS011;1480;51.456;6.670;2023-02-18T10:28:26;6.80;;;3.23;;
2940;SDS011;1480;51.456;6.670;2023-02-18T10:30:54;12.13;;;4.10;;
2940;SDS011;1480;51.456;6.670;2023-02-18T10:33:31;11.10;;;4.33;;
2940;SDS011;1480;51.456;6.670;2023-02-18T10:36:02;20.73;;;5.67;;
2940;SDS011;1480;51.456;6.670;2023-02-18T10:38:52;14.03;;;4.13;;
2940;SDS011;1480;51.456;6.670;2023-02-18T10:41:33;11.10;;;4.77;;
2940;SDS011;1480;51.456;6.670;2023-02-18T10:44:09;13.80;;;5.40;;
2940;SDS011;1480;51.456;6.670;2023-02-18T10:46:44;10.87;;;5.53;;
2940;SDS011;1480;51.456;6.670;2023-02-18T10:49:29;18.03;;;5.93;;
2940;SDS011;1480;51.456;6.670;2023-02-18T10:52:08;10.23;;;5.40;;
2940;SDS011;1480;51.456;6.670;2023-02-18T10:54:49;14.67;;;5.63;;
2940;SDS011;1480;51.456;6.670;2023-02-18T10:57:20;12.33;;;6.40;;
2940;SDS011;1480;51.456;6.670;2023-02-18T10:59:56;11.13;;;6.63;;
2940;SDS011;1480;51.456;6.670;2023-02-18T11:02:27;9.50;;;4.77;;
2940;SDS011;1480;51.456;6.670;2023-02-18T11:04:56;12.00;;;5.80;;
2940;SDS011;1480;51.456;6.670;2023-02-18T11:07:28;15.93;;;5.23;;
2940;SDS011;1480;51.456;6.670;2023-02-18T11:09:58;11.70;;;5.37;;
2940;SDS011;1480;51.456;6.670;2023-02-18T11:12:29;9.23;;;5.10;;
2940;SDS011;1480;51.456;6.670;2023-02-18T11:15:05;12.43;;;5.80;;
2940;SDS011;1480;51.456;6.670;2023-02-18T11:17:42;16.03;;;7.47;;
2940;SDS011;1480;51.456;6.670;2023-02-18T11:20:20;17.80;;;5.73;;
2940;SDS011;1480;51.456;6.670;2023-02-18T11:22:53;13.83;;;6.03;;
2940;SDS011;1480;51.456;6.670;2023-02-18T11:25:24;16.83;;;7.63;;
2940;SDS011;1480;51.456;6.670;2023-02-18T11:27:55;7.97;;;5.50;;
2940;SDS011;1480;51.456;6.670;2023-02-18T11:30:24;11.70;;;5.93;;
2940;SDS011;1480;51.456;6.670;2023-02-18T11:32:58;10.27;;;5.40;;
2940;SDS011;1480;51.456;6.670;2023-02-18T11:35:29;13.07;;;7.37;;
2940;SDS011;1480;51.456;6.670;2023-02-18T11:37:58;16.20;;;7.13;;
2940;SDS011;1480;51.456;6.670;2023-02-18T11:40:27;8.90;;;6.10;;
2940;SDS011;1480;51.456;6.670;2023-02-18T11:43:05;12.03;;;5.37;;
2940;SDS011;1480;51.456;6.670;2023-02-18T11:45:37;11.90;;;6.33;;
2940;SDS011;1480;51.456;6.670;2023-02-18T11:48:06;12.23;;;6.40;;
2940;SDS011;1480;51.456;6.670;2023-02-18T11:50:39;15.93;;;5.67;;
2940;SDS011;1480;51.456;6.670;2023-02-18T11:53:25;13.40;;;6.20;;
2940;SDS011;1480;51.456;6.670;2023-02-18T11:55:53;11.63;;;6.30;;
2940;SDS011;1480;51.456;6.670;2023-02-18T11:58:24;6.67;;;5.33;;
2940;SDS011;1480;51.456;6.670;2023-02-18T12:00:53;7.37;;;6.57;;
2940;SDS011;1480;51.456;6.670;2023-02-18T12:03:24;8.87;;;6.10;;
2940;SDS011;1480;51.456;6.670;2023-02-18T12:05:56;9.40;;;7.53;;
2940;SDS011;1480;51.456;6.670;2023-02-18T12:08:27;9.23;;;5.10;;
2940;SDS011;1480;51.456;6.670;2023-02-18T12:10:58;12.73;;;6.20;;
2940;SDS011;1480;51.456;6.670;2023-02-18T12:13:31;8.60;;;6.20;;
2940;SDS011;1480;51.456;6.670;2023-02-18T12:16:05;10.93;;;6.10;;
2940;SDS011;1480;51.456;6.670;2023-02-18T12:18:47;7.77;;;6.20;;
2940;SDS011;1480;51.456;6.670;2023-02-18T12:21:35;12.10;;;6.27;;
2940;SDS011;1480;51.456;6.670;2023-02-18T12:24:16;8.13;;;5.80;;
2940;SDS011;1480;51.456;6.670;2023-02-18T12:27:00;8.67;;;7.10;;
2940;SDS011;1480;51.456;6.670;2023-02-18T12:29:47;11.47;;;6.33;;
2940;SDS011;1480;51.456;6.670;2023-02-18T12:32:26;20.50;;;9.00;;
2940;SDS011;1480;51.456;6.670;2023-02-18T12:35:03;10.33;;;7.10;;
2940;SDS011;1480;51.456;6.670;2023-02-18T12:37:44;11.73;;;7.63;;
2940;SDS011;1480;51.456;6.670;2023-02-18T12:40:36;13.63;;;7.47;;
2940;SDS011;1480;51.456;6.670;2023-02-18T12:43:16;13.10;;;6.80;;
2940;SDS011;1480;51.456;6.670;2023-02-18T12:45:56;14.60;;;6.80;;
2940;SDS011;1480;51.456;6.670;2023-02-18T12:48:48;13.73;;;7.90;;
2940;SDS011;1480;51.456;6.670;2023-02-18T12:51:36;14.57;;;7.57;;
2940;SDS011;1480;51.456;6.670;2023-02-18T12:54:18;10.07;;;7.53;;
2940;SDS011;1480;51.456;6.670;2023-02-18T12:57:03;10.47;;;7.13;;
2940;SDS011;1480;51.456;6.670;2023-02-18T12:59:51;8.17;;;7.00;;
2940;SDS011;1480;51.456;6.670;2023-02-18T13:02:46;11.70;;;7.67;;
2940;SDS011;1480;51.456;6.670;2023-02-18T13:05:25;10.33;;;7.93;;
2940;SDS011;1480;51.456;6.670;2023-02-18T13:08:01;11.53;;;8.20;;
2940;SDS011;1480;51.456;6.670;2023-02-18T13:10:57;14.03;;;8.40;;
2940;SDS011;1480;51.456;6.670;2023-02-18T13:13:39;13.50;;;8.17;;
2940;SDS011;1480;51.456;6.670;2023-02-18T13:16:09;10.47;;;7.30;;
2940;SDS011;1480;51.456;6.670;2023-02-18T13:18:40;11.53;;;8.53;;
2940;SDS011;1480;51.456;6.670;2023-02-18T13:21:11;14.70;;;9.40;;
2940;SDS011;1480;51.456;6.670;2023-02-18T13:23:42;12.03;;;9.93;;
2940;SDS011;1480;51.456;6.670;2023-02-18T13:26:15;15.83;;;8.90;;
2940;SDS011;1480;51.456;6.670;2023-02-18T13:28:47;15.77;;;11.23;;
2940;SDS011;1480;51.456;6.670;2023-02-18T13:31:22;12.20;;;10.10;;
2940;SDS011;1480;51.456;6.670;2023-02-18T13:34:03;16.27;;;10.90;;
2940;SDS011;1480;51.456;6.670;2023-02-18T13:36:45;14.20;;;10.33;;
2940;SDS011;1480;51.456;6.670;2023-02-18T13:39:17;16.00;;;11.90;;
2940;SDS011;1480;51.456;6.670;2023-02-18T13:41:47;22.30;;;13.80;;
2940;SDS011;1480;51.456;6.670;2023-02-18T13:47:43;21.43;;;12.90;;
2940;SDS011;1480;51.456;6.670;2023-02-18T13:50:24;16.57;;;13.40;;
2940;SDS011;1480;51.456;6.670;2023-02-18T13:55:51;23.53;;;14.07;;
2940;SDS011;1480;51.456;6.670;2023-02-18T13:58:22;16.83;;;13.67;;
2940;SDS011;1480;51.456;6.670;2023-02-18T14:00:53;23.90;;;13.73;;
2940;SDS011;1480;51.456;6.670;2023-02-18T14:03:38;25.63;;;15.23;;
2940;SDS011;1480;51.456;6.670;2023-02-18T14:06:20;24.80;;;13.70;;
2940;SDS011;1480;51.456;6.670;2023-02-18T14:08:48;19.93;;;14.40;;
2940;SDS011;1480;51.456;6.670;2023-02-18T14:14:14;25.00;;;14.83;;
2940;SDS011;1480;51.456;6.670;2023-02-18T14:17:12;20.90;;;14.47;;
2940;SDS011;1480;51.456;6.670;2023-02-18T14:19:39;28.97;;;18.23;;
2940;SDS011;1480;51.456;6.670;2023-02-18T14:24:59;21.80;;;13.30;;
2940;SDS011;1480;51.456;6.670;2023-02-18T14:27:28;26.70;;;17.00;;
2940;SDS011;1480;51.456;6.670;2023-02-18T14:29:57;21.43;;;16.40;;
2940;SDS011;1480;51.456;6.670;2023-02-18T14:32:29;23.47;;;15.30;;
2940;SDS011;1480;51.456;6.670;2023-02-18T14:35:00;27.57;;;15.73;;
2940;SDS011;1480;51.456;6.670;2023-02-18T14:40:43;27.00;;;17.60;;
2940;SDS011;1480;51.456;6.670;2023-02-18T14:43:38;21.70;;;15.87;;
2940;SDS011;1480;51.456;6.670;2023-02-18T14:46:27;22.83;;;16.57;;
2940;SDS011;1480;51.456;6.670;2023-02-18T14:49:15;24.43;;;16.53;;
2940;SDS011;1480;51.456;6.670;2023-02-18T14:51:51;22.10;;;16.10;;
2940;SDS011;1480;51.456;6.670;2023-02-18T14:54:24;32.03;;;16.13;;
2940;SDS011;1480;51.456;6.670;2023-02-18T14:56:54;20.70;;;16.13;;
2940;SDS011;1480;51.456;6.670;2023-02-18T14:59:24;26.23;;;18.83;;
2940;SDS011;1480;51.456;6.670;2023-02-18T15:01:54;26.03;;;16.00;;
2940;SDS011;1480;51.456;6.670;2023-02-18T15:04:22;22.00;;;17.00;;
2940;SDS011;1480;51.456;6.670;2023-02-18T15:06:57;21.93;;;15.70;;
2940;SDS011;1480;51.456;6.670;2023-02-18T15:09:26;22.97;;;16.80;;
2940;SDS011;1480;51.456;6.670;2023-02-18T15:11:55;25.17;;;16.03;;
2940;SDS011;1480;51.456;6.670;2023-02-18T15:14:26;25.90;;;16.90;;
2940;SDS011;1480;51.456;6.670;2023-02-18T15:16:56;26.17;;;16.80;;
2940;SDS011;1480;51.456;6.670;2023-02-18T15:19:25;22.77;;;17.07;;
2940;SDS011;1480;51.456;6.670;2023-02-18T15:21:55;24.20;;;15.47;;
2940;SDS011;1480;51.456;6.670;2023-02-18T15:24:23;25.27;;;17.50;;
2940;SDS011;1480;51.456;6.670;2023-02-18T15:26:55;32.17;;;19.37;;
2940;SDS011;1480;51.456;6.670;2023-02-18T15:29:25;31.83;;;18.17;;
2940;SDS011;1480;51.456;6.670;2023-02-18T15:31:54;26.10;;;17.80;;
2940;SDS011;1480;51.456;6.670;2023-02-18T15:34:33;24.67;;;17.83;;
2940;SDS011;1480;51.456;6.670;2023-02-18T15:37:03;33.03;;;20.13;;
2940;SDS011;1480;51.456;6.670;2023-02-18T15:39:31;27.13;;;18.20;;
2940;SDS011;1480;51.456;6.670;2023-02-18T15:42:00;29.50;;;18.23;;
2940;SDS011;1480;51.456;6.670;2023-02-18T15:44:33;28.03;;;19.33;;
2940;SDS011;1480;51.456;6.670;2023-02-18T15:47:01;29.63;;;17.67;;